Time;durP1;ratioP1;P1;durP2;ratioP2;P2;SDS_P1;SDS_P2;PMS_P1;PMS_P2;Temp;Humidity;BMP_temperature;BMP_pressure;BME280_temperature;BME280_humidity;BME280_pressure;Samples;Min_cycle;Max_cycle;Signal;HPM_P1;HPM_P2
2022/02/18 00:01:36;;;;;;;3.85;2.90;;;;;;;19.52;45.38;100363.38;4967981;28;20022;-45
2022/02/18 00:04:03;;;;;;;3.47;2.35;;;;;;;19.51;45.33;100381.06;4980996;28;20034;-44
2022/02/18 00:06:30;;;;;;;3.33;3.00;;;;;;;19.51;45.30;100385.53;4954719;28;20498;-45
2022/02/18 00:08:55;;;;;;;4.07;2.95;;;;;;;19.49;45.29;100388.34;4973797;28;20181;-39
2022/02/18 00:11:21;;;;;;;3.67;3.15;;;;;;;19.49;45.23;100384.88;4987228;28;20062;-42
2022/02/18 00:13:46;;;;;;;4.38;3.15;;;;;;;19.46;45.18;100388.75;4986149;28;20050;-40
2022/02/18 00:16:12;;;;;;;3.03;2.72;;;;;;;19.45;45.30;100384.47;4971604;28;20113;-41
2022/02/18 00:18:37;;;;;;;3.70;2.88;;;;;;;19.44;45.15;100379.41;4964202;28;20486;-41
2022/02/18 00:21:03;;;;;;;4.75;3.35;;;;;;;19.44;44.96;100384.69;4966622;28;20089;-44
2022/02/18 00:23:28;;;;;;;4.78;3.80;;;;;;;19.42;45.03;100398.09;4975240;28;20042;-43
2022/02/18 00:25:54;;;;;;;3.13;2.58;;;;;;;19.40;45.05;100402.75;4971104;28;20030;-42
2022/02/18 00:28:21;;;;;;;3.72;3.20;;;;;;;19.39;45.07;100414.34;4985422;28;20065;-42
2022/02/18 00:30:47;;;;;;;2.88;2.40;;;;;;;19.38;45.13;100404.81;4976369;28;20189;-42
2022/02/18 00:33:13;;;;;;;3.22;2.92;;;;;;;19.39;45.04;100424.09;4977338;28;20035;-41
2022/02/18 00:35:39;;;;;;;3.53;2.72;;;;;;;19.37;45.15;100429.63;4979740;28;20406;-42
2022/02/18 00:38:04;;;;;;;4.03;3.03;;;;;;;19.35;44.86;100429.00;4980435;28;20057;-43
2022/02/18 00:40:30;;;;;;;3.60;3.17;;;;;;;19.34;44.96;100424.75;4985521;28;20033;-41
2022/02/18 00:42:56;;;;;;;4.45;3.63;;;;;;;19.34;45.06;100437.13;4985029;28;20026;-42
2022/02/18 00:45:23;;;;;;;4.65;3.05;;;;;;;19.33;44.84;100446.06;4981614;28;20090;-41
2022/02/18 00:47:49;;;;;;;3.13;2.83;;;;;;;19.32;44.96;100439.97;4974395;28;20383;-43
2022/02/18 00:50:17;;;;;;;4.03;3.63;;;;;;;19.32;44.78;100437.34;4984584;28;20031;-43
2022/02/18 00:52:43;;;;;;;4.50;3.67;;;;;;;19.31;44.75;100438.34;4954923;28;20033;-43
2022/02/18 00:55:10;;;;;;;3.92;3.25;;;;;;;19.32;44.78;100436.53;4967474;28;20218;-42
2022/02/18 00:57:36;;;;;;;3.75;3.15;;;;;;;19.32;44.94;100434.69;4980297;28;20038;-40
2022/02/18 01:00:05;;;;;;;4.38;3.67;;;;;;;19.33;44.74;100435.50;4984892;28;20037;-43
2022/02/18 01:02:30;;;;;;;3.75;2.97;;;;;;;19.32;44.71;100434.69;4974295;28;20130;-43
2022/02/18 01:04:56;;;;;;;4.57;3.53;;;;;;;19.34;44.71;100439.78;4987047;28;20110;-42
2022/02/18 01:07:23;;;;;;;3.28;2.97;;;;;;;19.34;44.54;100448.50;4977189;28;20042;-42
2022/02/18 01:09:49;;;;;;;4.72;3.28;;;;;;;19.33;44.72;100452.16;4967500;28;20042;-48
2022/02/18 01:12:15;;;;;;;4.32;3.40;;;;;;;19.33;44.79;100460.09;4977742;28;20482;-46
2022/02/18 01:14:40;;;;;;;3.25;2.95;;;;;;;19.32;44.78;100455.00;4957635;28;20122;-44
2022/02/18 01:17:06;;;;;;;4.20;3.20;;;;;;;19.30;44.81;100452.56;4964353;28;20027;-41
2022/02/18 01:19:31;;;;;;;3.70;3.00;;;;;;;19.30;44.90;100446.47;4974620;28;20040;-44
2022/02/18 01:21:57;;;;;;;4.20;2.83;;;;;;;19.28;44.83;100449.31;4979544;28;20027;-42
2022/02/18 01:24:22;;;;;;;4.15;2.58;;;;;;;19.27;44.88;100437.13;4970568;28;20077;-41
2022/02/18 01:26:48;;;;;;;2.85;2.42;;;;;;;19.27;44.83;100444.22;4970077;28;20097;-38
2022/02/18 01:29:13;;;;;;;4.18;2.90;;;;;;;19.24;44.82;100448.09;4969626;28;20133;-39
2022/02/18 01:31:39;;;;;;;4.32;3.17;;;;;;;19.25;44.78;100438.34;4972036;28;20081;-39
2022/02/18 01:34:04;;;;;;;4.03;3.13;;;;;;;19.23;44.78;100446.47;4970573;28;20113;-42
2022/02/18 01:36:30;;;;;;;3.72;2.47;;;;;;;19.22;44.79;100452.75;4969849;28;20085;-40
2022/02/18 01:38:55;;;;;;;3.10;2.80;;;;;;;19.21;44.65;100465.16;4968140;28;20446;-41
2022/02/18 01:41:21;;;;;;;4.63;3.92;;;;;;;19.19;44.51;100461.91;4968999;28;20482;-42
2022/02/18 01:43:53;;;;;;;4.13;3.35;;;;;;;19.18;44.55;100464.75;4970530;28;20108;-42
2022/02/18 01:46:19;;;;;;;4.07;3.70;;;;;;;19.18;44.63;100477.94;4968601;28;20046;-41
2022/02/18 01:48:45;;;;;;;3.70;2.97;;;;;;;19.17;44.58;100474.50;4967691;28;20112;-43
2022/02/18 01:51:10;;;;;;;3.67;3.15;;;;;;;19.16;44.52;100474.69;4984672;28;20429;-41
2022/02/18 01:53:37;;;;;;;3.90;3.25;;;;;;;19.14;44.50;100468.78;4973002;28;20824;-43
2022/02/18 01:56:03;;;;;;;4.05;3.58;;;;;;;19.14;44.45;100476.72;4970078;28;20106;-42
2022/02/18 01:58:30;;;;;;;4.10;3.70;;;;;;;19.13;44.28;100478.53;4968145;28;20037;-42
2022/02/18 02:00:57;;;;;;;3.30;3.00;;;;;;;19.13;44.36;100483.81;4952411;28;20399;-40
2022/02/18 02:03:23;;;;;;;3.17;2.85;;;;;;;19.14;44.22;100484.63;4950767;28;20050;-39
2022/02/18 02:05:51;;;;;;;3.80;2.97;;;;;;;19.13;44.26;100491.75;4951880;28;20031;-42
2022/02/18 02:08:17;;;;;;;3.72;3.08;;;;;;;19.14;44.23;100495.19;4983685;28;20043;-39
2022/02/18 02:13:35;;;;;;;4.43;3.05;;;;;;;19.09;44.16;100489.69;4700894;23;20124;-43
2022/02/18 02:16:01;;;;;;;2.55;2.33;;;;;;;19.11;44.25;100495.59;5008234;28;20026;-45
2022/02/18 02:18:27;;;;;;;3.40;3.08;;;;;;;19.12;44.31;100491.94;5008039;28;20029;-43
2022/02/18 02:20:53;;;;;;;3.92;2.45;;;;;;;19.10;44.25;100484.22;5007281;28;20040;-42
2022/02/18 02:23:19;;;;;;;2.38;2.00;;;;;;;19.08;44.23;100483.59;5008689;28;20021;-42
2022/02/18 02:25:44;;;;;;;4.03;3.25;;;;;;;19.07;44.26;100495.19;5008562;28;20033;-41
2022/02/18 02:28:10;;;;;;;3.22;2.60;;;;;;;19.05;44.29;100491.91;5008305;28;20037;-42
2022/02/18 02:30:35;;;;;;;2.95;2.65;;;;;;;19.04;44.41;100500.03;5007774;28;20117;-43
2022/02/18 02:33:01;;;;;;;4.05;3.05;;;;;;;19.03;44.19;100493.13;5008417;28;20333;-41
2022/02/18 02:35:26;;;;;;;3.28;2.55;;;;;;;19.02;44.12;100497.59;5008778;28;20614;-43
2022/02/18 02:37:52;;;;;;;2.97;1.98;;;;;;;19.01;44.25;100493.31;5008328;28;20485;-41
2022/02/18 02:40:19;;;;;;;3.63;2.40;;;;;;;19.02;44.17;100496.78;5008031;28;20299;-42
2022/02/18 02:42:46;;;;;;;3.55;2.90;;;;;;;19.00;44.26;100493.53;4990444;28;20040;-44
2022/02/18 02:45:13;;;;;;;3.10;2.80;;;;;;;19.00;44.18;100494.34;5008160;28;20489;-41
2022/02/18 02:47:39;;;;;;;3.92;2.30;;;;;;;18.98;44.26;100499.00;5008105;28;20037;-40
2022/02/18 02:50:05;;;;;;;3.67;2.45;;;;;;;18.98;44.15;100506.94;5007393;28;20038;-40
2022/02/18 02:52:31;;;;;;;2.72;2.22;;;;;;;18.97;44.25;100499.19;5007716;28;20029;-46
2022/02/18 02:54:56;;;;;;;2.85;2.42;;;;;;;18.96;44.20;100501.03;5007888;28;20473;-45
2022/02/18 02:57:22;;;;;;;3.15;2.55;;;;;;;18.95;44.24;100488.03;5008004;28;20073;-40
2022/02/18 02:59:47;;;;;;;3.83;3.20;;;;;;;18.95;44.08;100486.19;5007872;28;20060;-44
2022/02/18 03:02:14;;;;;;;3.95;3.13;;;;;;;18.95;44.05;100475.63;5007748;28;20619;-44
2022/02/18 03:04:39;;;;;;;3.65;2.63;;;;;;;18.94;44.05;100487.22;5007728;28;20038;-45
2022/02/18 03:07:05;;;;;;;3.00;2.65;;;;;;;18.94;43.89;100494.31;5007451;28;20025;-41
2022/02/18 03:09:30;;;;;;;2.38;2.17;;;;;;;18.95;43.97;100493.31;5007516;28;20034;-39
2022/02/18 03:11:56;;;;;;;2.97;2.28;;;;;;;18.96;44.03;100489.66;5006477;28;20054;-39
2022/02/18 03:14:21;;;;;;;2.00;1.75;;;;;;;18.95;44.09;100496.75;4988922;28;20030;-45
2022/02/18 03:16:47;;;;;;;2.30;1.70;;;;;;;18.96;44.19;100497.56;5008018;28;20029;-38
2022/02/18 03:19:12;;;;;;;2.53;1.67;;;;;;;18.96;44.16;100501.03;5007511;28;20030;-39
2022/02/18 03:21:38;;;;;;;3.13;2.28;;;;;;;18.95;44.12;100501.22;5006562;28;20049;-40
2022/02/18 03:24:04;;;;;;;3.17;2.25;;;;;;;18.96;44.12;100505.50;5007284;28;20037;-44
2022/02/18 03:26:29;;;;;;;2.65;1.90;;;;;;;18.96;44.04;100494.94;4989364;28;20037;-41
2022/02/18 03:28:55;;;;;;;2.08;1.70;;;;;;;18.95;44.06;100501.22;5007155;28;20430;-39
2022/02/18 03:31:21;;;;;;;2.40;1.73;;;;;;;18.95;44.04;100506.50;4989049;28;20030;-41
2022/02/18 03:33:46;;;;;;;2.72;2.00;;;;;;;18.92;44.10;100512.19;5007392;28;20034;-41
2022/02/18 03:36:12;;;;;;;1.70;1.33;;;;;;;18.93;43.99;100513.81;5006913;28;20029;-44
2022/02/18 03:38:38;;;;;;;2.72;1.55;;;;;;;18.89;44.05;100500.22;5007125;28;20083;-38
2022/02/18 03:41:04;;;;;;;3.75;2.47;;;;;;;18.89;44.06;100514.22;5006815;28;20034;-44
2022/02/18 03:43:30;;;;;;;2.92;2.55;;;;;;;18.88;44.06;100517.06;5006637;28;20042;-39
2022/02/18 03:45:55;;;;;;;3.08;2.30;;;;;;;18.85;44.14;100513.00;5007005;28;20041;-39
2022/02/18 03:48:21;;;;;;;3.00;2.00;;;;;;;18.85;44.16;100512.19;5006930;28;20037;-46
2022/02/18 03:50:46;;;;;;;2.25;2.05;;;;;;;18.83;44.17;100509.72;5006682;28;20029;-43
2022/02/18 03:53:14;;;;;;;2.75;2.00;;;;;;;18.83;44.29;100507.09;5006777;28;20038;-42
2022/02/18 03:55:39;;;;;;;3.83;2.35;;;;;;;18.82;44.17;100507.28;5006821;28;20128;-43
2022/02/18 03:58:05;;;;;;;2.67;2.33;;;;;;;18.81;44.21;100505.66;5006944;28;20132;-41
2022/02/18 04:00:30;;;;;;;3.30;1.63;;;;;;;18.80;44.16;100509.31;5006032;28;20025;-41
2022/02/18 04:02:56;;;;;;;3.13;2.28;;;;;;;18.79;44.12;100519.06;5006256;28;20088;-45
2022/02/18 04:05:22;;;;;;;2.33;1.65;;;;;;;18.78;44.13;100530.63;5006803;28;20056;-43
2022/02/18 04:07:48;;;;;;;1.73;1.48;;;;;;;18.78;44.02;100532.44;5006997;28;20034;-43
2022/02/18 04:10:13;;;;;;;2.78;2.03;;;;;;;18.76;44.03;100543.19;5006752;28;20428;-45
2022/02/18 04:12:39;;;;;;;2.60;1.83;;;;;;;18.76;44.09;100550.31;5005072;28;20050;-43
2022/02/18 04:15:05;;;;;;;3.10;1.98;;;;;;;18.75;44.00;100553.94;5005714;28;20044;-40
2022/02/18 04:17:32;;;;;;;2.17;1.88;;;;;;;18.75;44.03;100552.13;5006471;28;20072;-40
2022/02/18 04:19:57;;;;;;;1.48;1.10;;;;;;;18.76;44.10;100552.94;4988827;28;20099;-42
2022/02/18 04:22:23;;;;;;;2.40;1.73;;;;;;;18.75;44.04;100552.13;5006412;28;20076;-43
2022/02/18 04:24:49;;;;;;;2.35;2.10;;;;;;;18.75;44.03;100544.22;4988586;28;20042;-38
2022/02/18 04:27:15;;;;;;;1.60;1.50;;;;;;;18.75;43.88;100541.56;5006662;28;20049;-45
2022/02/18 04:29:40;;;;;;;2.35;1.70;;;;;;;18.75;43.99;100546.84;5006718;28;20203;-43
2022/02/18 04:32:06;;;;;;;2.28;1.52;;;;;;;18.75;43.91;100551.31;5006652;28;20389;-45
2022/02/18 04:34:32;;;;;;;3.65;2.20;;;;;;;18.73;43.92;100543.59;5005928;28;20084;-41
2022/02/18 04:36:57;;;;;;;2.92;1.95;;;;;;;18.73;43.93;100562.06;5006773;28;20029;-43
2022/02/18 04:39:23;;;;;;;2.13;1.58;;;;;;;18.72;43.99;100568.34;5006632;28;20466;-40
2022/02/18 04:41:49;;;;;;;1.67;1.27;;;;;;;18.72;43.98;100567.53;5006201;28;20037;-40
2022/02/18 04:44:16;;;;;;;2.05;1.65;;;;;;;18.69;43.80;100547.63;5006996;28;20102;-41
2022/02/18 04:46:42;;;;;;;2.22;1.67;;;;;;;18.68;44.03;100546.00;4988050;28;20018;-42
2022/02/18 04:49:08;;;;;;;1.85;1.65;;;;;;;18.67;44.01;100552.28;4987943;28;20508;-43
2022/02/18 04:51:33;;;;;;;3.05;1.80;;;;;;;18.66;43.89;100550.66;5006265;28;20034;-46
2022/02/18 04:53:58;;;;;;;1.73;1.15;;;;;;;18.65;43.91;100553.50;5009039;28;20389;-42
2022/02/18 04:56:24;;;;;;;1.95;1.65;;;;;;;18.63;43.85;100545.75;5010058;28;20029;-43
2022/02/18 04:58:50;;;;;;;4.20;2.05;;;;;;;18.62;43.84;100546.78;5009833;28;20046;-43
2022/02/18 05:01:16;;;;;;;1.83;1.27;;;;;;;18.62;43.75;100546.78;5009798;28;20127;-39
2022/02/18 05:03:42;;;;;;;2.90;1.67;;;;;;;18.61;43.82;100547.78;5009830;28;20042;-41
2022/02/18 05:06:07;;;;;;;1.30;1.13;;;;;;;18.60;43.77;100530.31;5009868;28;20032;-41
2022/02/18 05:08:33;;;;;;;1.52;1.17;;;;;;;18.60;43.77;100535.59;5010135;28;20038;-43
2022/02/18 05:10:59;;;;;;;2.05;1.52;;;;;;;18.60;43.86;100526.84;5009651;28;20136;-40
2022/02/18 05:13:25;;;;;;;2.33;1.55;;;;;;;18.62;43.91;100530.94;5009409;28;20060;-39
2022/02/18 05:15:50;;;;;;;3.08;1.63;;;;;;;18.66;43.77;100539.28;5009609;28;20069;-43
2022/02/18 05:18:16;;;;;;;2.35;1.00;;;;;;;18.69;43.73;100550.28;5008859;28;20412;-42
2022/02/18 05:20:41;;;;;;;1.80;1.30;;;;;;;18.73;43.71;100564.72;5010028;28;20022;-41
2022/02/18 05:23:07;;;;;;;2.03;1.30;;;;;;;18.78;43.72;100558.84;5010103;28;20505;-45
2022/02/18 05:25:34;;;;;;;1.92;1.10;;;;;;;18.83;43.57;100554.59;5009715;28;20104;-43
2022/02/18 05:28:04;;;;;;;1.83;1.40;;;;;;;18.89;43.57;100563.56;4991065;28;20065;-39
2022/02/18 05:30:32;;;;;;;1.95;1.52;;;;;;;18.95;43.41;100575.97;4991604;28;20017;-42
2022/02/18 05:32:58;;;;;;;2.10;1.67;;;;;;;19.02;43.44;100578.63;5008953;28;20137;-40
2022/02/18 05:35:23;;;;;;;1.92;1.30;;;;;;;19.08;43.24;100591.88;5009553;28;20382;-39
2022/02/18 05:37:49;;;;;;;2.33;1.33;;;;;;;19.11;43.22;100586.19;5008428;28;20049;-43
2022/02/18 05:40:15;;;;;;;1.83;1.27;;;;;;;19.17;43.14;100580.13;5009391;28;20057;-40
2022/02/18 05:42:41;;;;;;;2.72;1.50;;;;;;;19.23;43.25;100584.63;5009274;28;20025;-40
2022/02/18 05:45:07;;;;;;;2.42;1.65;;;;;;;19.28;42.89;100585.84;5009096;28;20052;-43
2022/02/18 05:47:34;;;;;;;2.20;1.73;;;;;;;19.32;42.89;100590.53;5008755;28;20109;-47
2022/02/18 05:50:03;;;;;;;2.08;1.40;;;;;;;19.37;42.64;100590.78;5009193;28;20069;-44
2022/02/18 05:52:28;;;;;;;1.73;1.20;;;;;;;19.40;42.78;100600.91;5008538;28;20116;-43
2022/02/18 05:54:54;;;;;;;2.40;1.10;;;;;;;19.45;42.74;100609.06;5009199;28;20408;-44
2022/02/18 05:57:20;;;;;;;1.90;1.20;;;;;;;19.50;42.83;100609.28;5009270;28;20397;-44
2022/02/18 05:59:46;;;;;;;2.55;1.15;;;;;;;19.55;42.66;100612.16;5009069;28;20025;-43
2022/02/18 06:02:11;;;;;;;1.77;0.93;;;;;;;19.61;42.51;100617.69;5003222;28;20033;-44
2022/02/18 06:04:37;;;;;;;1.50;1.05;;;;;;;19.66;42.65;100616.06;5008123;28;20029;-45
2022/02/18 06:07:02;;;;;;;2.53;1.30;;;;;;;19.71;42.51;100612.81;5007822;28;20064;-40
2022/02/18 06:09:28;;;;;;;1.40;1.00;;;;;;;19.76;42.43;100613.84;5008874;28;20474;-41
2022/02/18 06:11:55;;;;;;;1.70;1.02;;;;;;;19.81;42.31;100607.97;5004696;28;20084;-41
2022/02/18 06:14:21;;;;;;;2.55;1.50;;;;;;;19.86;42.57;100606.31;5008656;28;20044;-46
2022/02/18 06:16:47;;;;;;;1.83;0.90;;;;;;;19.91;42.32;100596.97;5004066;28;20022;-41
2022/02/18 06:19:12;;;;;;;1.95;1.20;;;;;;;19.96;42.18;100603.28;5008559;28;20067;-44
2022/02/18 06:21:40;;;;;;;2.13;1.00;;;;;;;20.00;42.02;100596.56;5007775;28;20237;-45
2022/02/18 06:24:09;;;;;;;1.02;0.73;;;;;;;20.07;42.17;100607.97;5007414;28;20512;-40
2022/02/18 06:26:34;;;;;;;1.58;0.82;;;;;;;20.13;42.22;100598.41;5004557;28;20034;-44
2022/02/18 06:29:00;;;;;;;1.48;0.90;;;;;;;20.17;41.96;100599.66;5008416;28;20022;-44
2022/02/18 06:31:25;;;;;;;1.90;1.15;;;;;;;20.22;42.05;100599.84;5005661;28;20033;-42
2022/02/18 06:33:51;;;;;;;1.58;0.95;;;;;;;20.26;42.06;100605.56;5005208;28;20042;-42
2022/02/18 06:36:16;;;;;;;1.20;0.88;;;;;;;20.29;42.05;100605.13;5004787;28;20022;-46
2022/02/18 06:38:44;;;;;;;3.10;1.00;;;;;;;20.35;41.88;100628.09;5008307;28;20101;-41
2022/02/18 06:41:10;;;;;;;2.90;0.90;;;;;;;20.40;41.87;100634.44;5005143;28;20041;-45
2022/02/18 06:43:38;;;;;;;2.95;0.95;;;;;;;20.51;42.06;100631.19;5007258;28;20040;-42
2022/02/18 06:46:04;;;;;;;1.42;0.98;;;;;;;20.64;41.62;100627.72;5005576;28;20034;-45
2022/02/18 06:48:29;;;;;;;1.48;0.90;;;;;;;20.70;41.43;100640.13;5007499;28;20088;-42
2022/02/18 06:50:55;;;;;;;1.65;1.13;;;;;;;20.77;41.52;100642.78;5004669;28;20087;-43
2022/02/18 06:53:20;;;;;;;2.45;0.80;;;;;;;20.80;41.17;100643.16;5007887;28;20326;-42
2022/02/18 06:55:46;;;;;;;1.73;1.10;;;;;;;20.85;41.25;100651.28;5007194;28;20033;-45
2022/02/18 06:58:12;;;;;;;1.45;0.90;;;;;;;20.91;41.22;100670.03;5005999;28;20203;-43
2022/02/18 07:00:38;;;;;;;4.10;1.30;;;;;;;20.96;41.17;100671.03;4989239;28;20489;-44
2022/02/18 07:03:07;;;;;;;2.00;1.25;;;;;;;21.01;40.71;100673.88;5005136;28;20052;-45
2022/02/18 07:05:33;;;;;;;1.50;1.17;;;;;;;21.04;40.68;100659.41;5007617;28;20048;-43
2022/02/18 07:07:59;;;;;;;5.13;1.30;;;;;;;20.99;40.82;100667.16;4989823;28;20030;-41
2022/02/18 07:10:25;;;;;;;4.60;1.27;;;;;;;21.02;41.17;100654.31;5007217;28;20033;-44
2022/02/18 07:12:50;;;;;;;3.30;1.27;;;;;;;21.05;41.54;100653.09;5006775;28;20448;-41
2022/02/18 07:15:16;;;;;;;6.50;1.20;;;;;;;21.05;41.45;100664.50;4987878;28;20034;-42
2022/02/18 07:17:42;;;;;;;8.27;1.35;;;;;;;21.05;41.65;100659.19;5003787;28;20018;-40
2022/02/18 07:20:09;;;;;;;7.50;1.20;;;;;;;21.05;41.42;100669.78;5007207;28;20406;-43
2022/02/18 07:22:36;;;;;;;5.10;0.95;;;;;;;21.05;41.58;100671.63;5005253;28;20109;-44
2022/02/18 07:25:03;;;;;;;6.43;1.27;;;;;;;21.04;41.23;100693.84;5006200;28;20030;-44
2022/02/18 07:27:28;;;;;;;2.97;1.17;;;;;;;21.03;41.44;100692.22;5005988;28;20494;-41
2022/02/18 07:29:53;;;;;;;2.10;0.88;;;;;;;21.03;41.48;100689.56;5002886;28;20381;-43
2022/02/18 07:32:24;;;;;;;3.75;0.88;;;;;;;21.02;41.37;100702.00;5007537;28;20489;-42
2022/02/18 07:34:49;;;;;;;3.92;1.23;;;;;;;21.01;41.17;100694.25;4988740;28;20044;-40
2022/02/18 07:37:15;;;;;;;3.83;0.80;;;;;;;21.01;41.41;100691.59;5006718;28;20026;-42
2022/02/18 07:39:41;;;;;;;3.33;1.00;;;;;;;20.99;41.29;100696.28;5005525;28;20038;-42
2022/02/18 07:42:07;;;;;;;1.80;1.17;;;;;;;20.98;41.42;100710.56;5005912;28;20026;-44
2022/02/18 07:44:32;;;;;;;3.60;0.90;;;;;;;20.96;41.38;100702.81;5002109;28;20037;-42
2022/02/18 07:46:58;;;;;;;2.35;1.02;;;;;;;20.97;41.10;100700.97;5003087;28;20033;-39
2022/02/18 07:49:24;;;;;;;2.50;0.98;;;;;;;20.96;41.28;100702.00;5005220;28;20036;-43
2022/02/18 07:51:49;;;;;;;1.85;0.88;;;;;;;20.93;41.28;100705.06;4969567;28;20239;-42
2022/02/18 07:54:15;;;;;;;1.92;0.98;;;;;;;20.87;41.72;100693.44;5004153;28;20034;-47
2022/02/18 07:56:40;;;;;;;4.95;1.20;;;;;;;20.82;41.95;100699.34;5004087;28;20038;-45
2022/02/18 07:59:06;;;;;;;3.10;1.58;;;;;;;20.81;42.02;100695.09;5002920;28;20657;-40
2022/02/18 08:01:32;;;;;;;1.80;1.27;;;;;;;20.81;42.41;100705.69;5005369;28;20096;-49
2022/02/18 08:03:57;;;;;;;5.15;1.13;;;;;;;20.81;43.06;100702.22;5005936;28;21073;-42
2022/02/18 08:06:23;;;;;;;1.77;0.98;;;;;;;20.77;42.96;100691.25;5005391;28;20342;-43
2022/02/18 08:08:48;;;;;;;1.98;1.10;;;;;;;20.70;43.18;100698.38;5005716;28;20493;-40
2022/02/18 08:11:16;;;;;;;2.17;0.88;;;;;;;20.66;43.46;100696.34;5005807;28;20053;-41
2022/02/18 08:13:42;;;;;;;4.28;0.95;;;;;;;20.63;43.28;100692.28;5005224;28;20128;-41
2022/02/18 08:16:08;;;;;;;4.45;1.00;;;;;;;20.63;43.41;100683.50;5004837;28;20049;-41
2022/02/18 08:18:34;;;;;;;5.45;1.17;;;;;;;20.61;43.26;100683.72;5005549;28;20452;-43
2022/02/18 08:21:00;;;;;;;5.00;1.08;;;;;;;20.61;43.61;100682.91;5005147;28;20572;-45
2022/02/18 08:23:25;;;;;;;3.45;0.93;;;;;;;20.59;43.57;100682.28;5003647;28;20033;-41
2022/02/18 08:25:51;;;;;;;1.77;0.90;;;;;;;20.57;43.90;100674.56;5002118;28;20128;-43
2022/02/18 08:28:17;;;;;;;3.22;0.88;;;;;;;20.54;43.84;100669.66;4988127;28;20017;-43
2022/02/18 08:30:47;;;;;;;7.43;0.90;;;;;;;20.53;43.84;100671.50;5004607;28;20637;-39
2022/02/18 08:33:13;;;;;;;9.02;1.15;;;;;;;20.51;43.51;100667.44;5006080;28;20030;-39
2022/02/18 08:35:39;;;;;;;2.25;0.73;;;;;;;20.50;43.83;100677.19;5007693;28;20041;-43
2022/02/18 08:38:05;;;;;;;3.45;0.70;;;;;;;20.49;43.44;100682.69;5008446;28;20042;-42
2022/02/18 08:40:31;;;;;;;7.18;1.33;;;;;;;20.49;43.41;100682.69;5003050;28;20030;-42
2022/02/18 08:42:57;;;;;;;2.72;0.75;;;;;;;20.46;43.69;100694.50;5003294;28;20041;-41
2022/02/18 08:45:23;;;;;;;3.97;0.80;;;;;;;20.44;43.71;100691.25;5009911;28;20065;-39
2022/02/18 08:47:48;;;;;;;2.60;1.02;;;;;;;20.45;43.65;100692.06;5007049;28;20516;-41
2022/02/18 08:50:14;;;;;;;1.73;1.00;;;;;;;20.42;43.68;100681.88;5009789;28;20030;-41
2022/02/18 08:52:42;;;;;;;2.63;1.02;;;;;;;20.41;43.88;100683.72;5006281;28;20138;-40
2022/02/18 08:55:11;;;;;;;2.50;1.20;;;;;;;20.44;43.70;100682.50;5006405;28;20037;-40
2022/02/18 08:57:38;;;;;;;2.78;0.75;;;;;;;20.47;44.06;100685.53;5010136;28;20026;-44
2022/02/18 09:00:06;;;;;;;4.45;0.85;;;;;;;20.46;44.54;100697.16;5007769;28;20129;-40
2022/02/18 09:02:35;;;;;;;5.70;1.38;;;;;;;20.44;44.70;100703.66;5004411;28;20029;-41
2022/02/18 09:05:01;;;;;;;1.85;1.00;;;;;;;20.42;44.58;100703.06;4985541;28;20122;-40
2022/02/18 09:07:27;;;;;;;3.30;0.70;;;;;;;20.39;44.56;100696.34;5009803;28;20072;-42
2022/02/18 09:09:54;;;;;;;4.05;1.10;;;;;;;20.38;44.46;100701.81;5000562;28;20022;-41
2022/02/18 09:12:20;;;;;;;2.88;0.80;;;;;;;20.38;44.23;100712.41;4991135;28;20405;-44
2022/02/18 09:14:45;;;;;;;4.47;1.35;;;;;;;20.38;44.40;100713.22;5007954;28;20046;-40
2022/02/18 09:17:11;;;;;;;1.85;0.90;;;;;;;20.36;44.24;100712.56;5007662;28;20022;-43
2022/02/18 09:19:36;;;;;;;5.82;1.67;;;;;;;20.36;43.74;100717.06;5006200;28;20041;-40
2022/02/18 09:22:02;;;;;;;13.10;2.55;;;;;;;20.32;43.54;100710.56;5007278;28;20026;-43
2022/02/18 09:24:28;;;;;;;5.65;2.80;;;;;;;20.27;42.67;100718.28;5007593;28;20144;-45
2022/02/18 09:26:54;;;;;;;5.05;3.17;;;;;;;20.25;42.22;100720.31;5004028;28;20548;-42
2022/02/18 09:29:20;;;;;;;6.60;3.03;;;;;;;20.20;41.59;100716.44;5006135;28;20026;-44
2022/02/18 09:31:46;;;;;;;6.15;3.85;;;;;;;20.15;41.01;100718.88;4989326;28;20449;-43
2022/02/18 09:34:12;;;;;;;9.25;3.85;;;;;;;20.12;40.66;100715.81;5007369;28;20418;-41
2022/02/18 09:36:39;;;;;;;6.35;3.00;;;;;;;20.08;40.31;100712.75;5004829;28;20129;-42
2022/02/18 09:39:06;;;;;;;5.47;3.63;;;;;;;20.08;40.01;100717.22;5008187;28;20455;-42
2022/02/18 09:41:34;;;;;;;6.43;3.13;;;;;;;20.06;39.76;100728.00;4989843;28;20444;-43
2022/02/18 09:44:01;;;;;;;4.55;2.78;;;;;;;20.04;40.08;100735.31;5002047;28;20508;-41
2022/02/18 09:46:29;;;;;;;5.78;2.45;;;;;;;20.03;40.22;100735.53;5007452;28;20111;-42
2022/02/18 09:48:55;;;;;;;5.10;2.83;;;;;;;20.03;40.65;100739.00;5009200;28;20125;-42
2022/02/18 09:51:21;;;;;;;5.10;1.80;;;;;;;20.03;40.75;100746.09;5009011;28;20208;-39
2022/02/18 09:53:48;;;;;;;4.85;1.83;;;;;;;20.02;40.81;100750.56;4990879;28;20032;-43
2022/02/18 09:56:17;;;;;;;7.38;2.63;;;;;;;20.00;41.21;100747.31;5008459;28;20045;-41
2022/02/18 09:58:43;;;;;;;3.45;1.50;;;;;;;19.99;41.20;100752.81;5008963;28;20130;-42
2022/02/18 10:01:08;;;;;;;3.83;1.10;;;;;;;19.97;41.43;100755.66;5008448;28;20450;-43
2022/02/18 10:03:35;;;;;;;3.10;1.67;;;;;;;19.96;41.61;100756.66;5007961;28;20026;-41
2022/02/18 10:06:00;;;;;;;4.60;1.27;;;;;;;19.96;41.55;100754.03;5008746;28;20034;-40
2022/02/18 10:08:28;;;;;;;3.10;1.38;;;;;;;19.95;41.74;100749.75;5008824;28;20052;-41
2022/02/18 10:11:03;;;;;;;2.22;1.02;;;;;;;19.94;41.88;100744.66;4991017;28;20190;-44
2022/02/18 10:13:32;;;;;;;3.28;1.05;;;;;;;19.93;41.94;100741.19;4991259;28;20575;-44
2022/02/18 10:15:59;;;;;;;2.90;0.93;;;;;;;19.93;42.33;100737.72;5008391;28;20132;-42
2022/02/18 10:18:26;;;;;;;4.72;1.20;;;;;;;19.92;42.17;100747.50;5008484;28;20045;-41
2022/02/18 10:20:53;;;;;;;3.38;0.82;;;;;;;19.93;42.25;100753.59;5008631;28;20105;-43
2022/02/18 10:23:21;;;;;;;3.20;1.25;;;;;;;19.91;42.33;100747.69;4990896;28;20037;-41
2022/02/18 10:25:50;;;;;;;1.85;0.82;;;;;;;19.91;42.51;100751.16;5008861;28;20034;-42
2022/02/18 10:28:18;;;;;;;3.13;1.40;;;;;;;19.89;42.62;100748.69;5008428;28;20101;-41
2022/02/18 10:30:45;;;;;;;2.95;1.00;;;;;;;19.88;42.84;100752.38;5003415;28;20034;-40
2022/02/18 10:33:13;;;;;;;4.32;1.45;;;;;;;19.86;42.79;100753.56;5007219;28;20358;-42
2022/02/18 10:35:39;;;;;;;3.30;1.23;;;;;;;19.85;42.86;100747.47;5008205;28;20037;-44
2022/02/18 10:38:07;;;;;;;3.33;0.80;;;;;;;19.85;42.71;100738.72;5007993;28;20030;-43
2022/02/18 10:40:40;;;;;;;5.00;1.70;;;;;;;19.82;42.93;100739.16;5008439;28;20034;-43
2022/02/18 10:43:10;;;;;;;1.33;0.55;;;;;;;19.81;43.04;100740.16;5008438;28;20068;-39
2022/02/18 10:45:49;;;;;;;2.45;0.68;;;;;;;19.81;43.15;100734.88;5008336;28;20034;-40
2022/02/18 10:48:14;;;;;;;3.72;1.13;;;;;;;19.78;43.02;100725.50;5008136;28;20428;-43
2022/02/18 10:50:40;;;;;;;1.80;1.20;;;;;;;19.78;43.16;100708.81;5008246;28;20121;-43
2022/02/18 10:53:12;;;;;;;1.70;0.93;;;;;;;19.76;43.25;100705.56;5007974;28;20030;-42
2022/02/18 10:55:57;;;;;;;3.50;0.85;;;;;;;19.72;43.25;100699.84;4990001;28;20034;-43
2022/02/18 10:58:29;;;;;;;2.28;0.90;;;;;;;19.73;43.37;100692.75;5004463;28;20520;-42
2022/02/18 11:01:21;;;;;;;1.15;0.50;;;;;;;19.68;43.47;100684.59;5002404;28;20037;-43
2022/02/18 11:03:58;;;;;;;1.90;0.77;;;;;;;19.67;43.50;100678.50;5002849;28;20166;-41
2022/02/18 11:06:34;;;;;;;1.48;0.60;;;;;;;19.67;43.39;100680.31;5005841;28;20026;-39
2022/02/18 11:09:00;;;;;;;1.73;0.75;;;;;;;19.69;43.58;100680.94;4998257;28;20393;-40
2022/02/18 11:11:44;;;;;;;3.10;1.00;;;;;;;19.66;43.70;100689.25;5003054;28;20040;-43
2022/02/18 11:14:12;;;;;;;1.55;0.70;;;;;;;19.68;43.76;100687.22;4982270;28;20405;-42
2022/02/18 11:16:55;;;;;;;2.03;0.73;;;;;;;19.67;43.98;100690.91;5003558;28;20096;-42
2022/02/18 11:19:21;;;;;;;2.03;0.63;;;;;;;19.67;43.93;100693.53;4985287;28;20071;-41
2022/02/18 11:21:46;;;;;;;1.50;0.70;;;;;;;19.70;43.88;100699.25;5001212;28;20494;-41
2022/02/18 11:24:16;;;;;;;1.95;0.60;;;;;;;19.69;44.05;100699.44;5005054;28;20084;-42